sensor_id;sensor_type;location;lat;lon;timestamp;temperature;humidity
3925;DHT22;1977;52.274;10.518;2023-11-21T00:02:12;10.70;99.90
3925;DHT22;1977;52.274;10.518;2023-11-21T00:04:40;10.90;99.90
3925;DHT22;1977;52.274;10.518;2023-11-21T00:07:07;10.80;99.90
3925;DHT22;1977;52.274;10.518;2023-11-21T00:09:34;10.70;99.90
3925;DHT22;1977;52.274;10.518;2023-11-21T00:12:02;10.70;99.90
3925;DHT22;1977;52.274;10.518;2023-11-21T00:14:29;10.70;99.90
3925;DHT22;1977;52.274;10.518;2023-11-21T00:16:56;10.70;99.90
3925;DHT22;1977;52.274;10.518;2023-11-21T00:19:22;10.70;99.90
3925;DHT22;1977;52.274;10.518;2023-11-21T00:21:51;10.70;99.90
3925;DHT22;1977;52.274;10.518;2023-11-21T00:24:17;10.80;99.90
3925;DHT22;1977;52.274;10.518;2023-11-21T00:26:44;10.80;99.90
3925;DHT22;1977;52.274;10.518;2023-11-21T00:31:39;10.70;99.90
3925;DHT22;1977;52.274;10.518;2023-11-21T00:34:06;10.70;99.90
3925;DHT22;1977;52.274;10.518;2023-11-21T00:36:33;10.70;99.90
3925;DHT22;1977;52.274;10.518;2023-11-21T00:39:01;10.70;99.90
3925;DHT22;1977;52.274;10.518;2023-11-21T00:41:28;10.70;99.90
3925;DHT22;1977;52.274;10.518;2023-11-21T00:43:54;10.70;99.90
3925;DHT22;1977;52.274;10.518;2023-11-21T00:46:21;10.80;99.90
3925;DHT22;1977;52.274;10.518;2023-11-21T00:48:49;10.60;99.90
3925;DHT22;1977;52.274;10.518;2023-11-21T00:51:16;10.60;99.90
3925;DHT22;1977;52.274;10.518;2023-11-21T00:53:43;10.80;99.90
3925;DHT22;1977;52.274;10.518;2023-11-21T00:56:11;10.60;99.90
3925;DHT22;1977;52.274;10.518;2023-11-21T00:58:38;10.60;99.90
3925;DHT22;1977;52.274;10.518;2023-11-21T01:01:08;10.60;99.90
3925;DHT22;1977;52.274;10.518;2023-11-21T01:03:34;10.60;99.90
3925;DHT22;1977;52.274;10.518;2023-11-21T01:06:01;10.60;99.90
3925;DHT22;1977;52.274;10.518;2023-11-21T01:08:28;10.60;99.90
3925;DHT22;1977;52.274;10.518;2023-11-21T01:10:55;10.60;99.90
3925;DHT22;1977;52.274;10.518;2023-11-21T01:13:23;10.60;99.90
3925;DHT22;1977;52.274;10.518;2023-11-21T01:15:55;10.60;99.90
3925;DHT22;1977;52.274;10.518;2023-11-21T01:18:21;10.50;99.90
3925;DHT22;1977;52.274;10.518;2023-11-21T01:20:51;10.60;99.90
3925;DHT22;1977;52.274;10.518;2023-11-21T01:23:18;10.60;99.90
3925;DHT22;1977;52.274;10.518;2023-11-21T01:25:45;10.60;99.90
3925;DHT22;1977;52.274;10.518;2023-11-21T01:28:12;10.80;99.90
3925;DHT22;1977;52.274;10.518;2023-11-21T01:30:40;10.50;99.90
3925;DHT22;1977;52.274;10.518;2023-11-21T01:33:06;10.50;99.90
3925;DHT22;1977;52.274;10.518;2023-11-21T01:35:34;10.50;99.90
3925;DHT22;1977;52.274;10.518;2023-11-21T01:38:01;10.50;99.90
3925;DHT22;1977;52.274;10.518;2023-11-21T01:40:29;10.50;99.90
3925;DHT22;1977;52.274;10.518;2023-11-21T01:42:56;10.50;99.90
3925;DHT22;1977;52.274;10.518;2023-11-21T01:45:24;10.50;99.90
3925;DHT22;1977;52.274;10.518;2023-11-21T01:47:52;10.50;99.90
3925;DHT22;1977;52.274;10.518;2023-11-21T01:50:19;10.50;99.90
3925;DHT22;1977;52.274;10.518;2023-11-21T01:52:48;10.50;99.90
3925;DHT22;1977;52.274;10.518;2023-11-21T01:55:16;10.60;99.90
3925;DHT22;1977;52.274;10.518;2023-11-21T01:57:45;10.40;99.90
3925;DHT22;1977;52.274;10.518;2023-11-21T02:00:13;10.40;99.90
3925;DHT22;1977;52.274;10.518;2023-11-21T02:02:42;10.40;99.90
3925;DHT22;1977;52.274;10.518;2023-11-21T02:05:11;10.40;99.90
3925;DHT22;1977;52.274;10.518;2023-11-21T02:07:38;10.50;99.90
3925;DHT22;1977;52.274;10.518;2023-11-21T02:10:06;10.50;99.90
3925;DHT22;1977;52.274;10.518;2023-11-21T02:12:33;10.40;99.90
3925;DHT22;1977;52.274;10.518;2023-11-21T02:15:02;10.70;99.90
3925;DHT22;1977;52.274;10.518;2023-11-21T02:17:30;10.50;99.90
3925;DHT22;1977;52.274;10.518;2023-11-21T02:19:58;10.50;99.90
3925;DHT22;1977;52.274;10.518;2023-11-21T02:22:27;10.50;99.90
3925;DHT22;1977;52.274;10.518;2023-11-21T02:24:59;10.50;99.90
3925;DHT22;1977;52.274;10.518;2023-11-21T02:27:26;10.50;99.90
3925;DHT22;1977;52.274;10.518;2023-11-21T02:29:53;10.50;99.90
3925;DHT22;1977;52.274;10.518;2023-11-21T02:32:20;10.40;99.90
3925;DHT22;1977;52.274;10.518;2023-11-21T02:34:48;10.50;99.90
3925;DHT22;1977;52.274;10.518;2023-11-21T02:37:15;10.50;99.90
3925;DHT22;1977;52.274;10.518;2023-11-21T02:39:42;10.50;99.90
3925;DHT22;1977;52.274;10.518;2023-11-21T02:42:10;10.50;99.90
3925;DHT22;1977;52.274;10.518;2023-11-21T02:44:37;10.50;99.90
3925;DHT22;1977;52.274;10.518;2023-11-21T02:47:04;10.40;99.90
3925;DHT22;1977;52.274;10.518;2023-11-21T02:49:31;10.70;99.90
3925;DHT22;1977;52.274;10.518;2023-11-21T02:52:00;10.50;99.90
3925;DHT22;1977;52.274;10.518;2023-11-21T02:54:27;10.50;99.90
3925;DHT22;1977;52.274;10.518;2023-11-21T02:56:54;10.50;99.90
3925;DHT22;1977;52.274;10.518;2023-11-21T02:59:22;10.70;99.90
3925;DHT22;1977;52.274;10.518;2023-11-21T03:01:48;10.60;99.90
3925;DHT22;1977;52.274;10.518;2023-11-21T03:04:16;10.60;99.90
3925;DHT22;1977;52.274;10.518;2023-11-21T03:06:43;10.50;99.90
3925;DHT22;1977;52.274;10.518;2023-11-21T03:09:11;10.50;99.90
3925;DHT22;1977;52.274;10.518;2023-11-21T03:11:38;10.60;99.90
3925;DHT22;1977;52.274;10.518;2023-11-21T03:14:05;10.50;99.90
3925;DHT22;1977;52.274;10.518;2023-11-21T03:16:33;10.60;99.90
3925;DHT22;1977;52.274;10.518;2023-11-21T03:19:00;10.60;99.90
3925;DHT22;1977;52.274;10.518;2023-11-21T03:21:27;10.60;99.90
3925;DHT22;1977;52.274;10.518;2023-11-21T03:23:54;10.60;99.90
3925;DHT22;1977;52.274;10.518;2023-11-21T03:26:21;10.60;99.90
3925;DHT22;1977;52.274;10.518;2023-11-21T03:28:48;10.60;99.90
3925;DHT22;1977;52.274;10.518;2023-11-21T03:31:15;10.60;99.90
3925;DHT22;1977;52.274;10.518;2023-11-21T03:33:45;10.60;99.90
3925;DHT22;1977;52.274;10.518;2023-11-21T03:36:12;10.60;99.90
3925;DHT22;1977;52.274;10.518;2023-11-21T03:38:40;10.80;99.90
3925;DHT22;1977;52.274;10.518;2023-11-21T03:41:07;10.50;99.90
3925;DHT22;1977;52.274;10.518;2023-11-21T03:43:35;10.60;99.90
3925;DHT22;1977;52.274;10.518;2023-11-21T03:46:02;10.50;99.90
3925;DHT22;1977;52.274;10.518;2023-11-21T03:48:29;10.60;99.90
3925;DHT22;1977;52.274;10.518;2023-11-21T03:50:57;10.60;99.90
3925;DHT22;1977;52.274;10.518;2023-11-21T03:53:24;10.50;99.90
3925;DHT22;1977;52.274;10.518;2023-11-21T03:55:51;10.50;99.90
3925;DHT22;1977;52.274;10.518;2023-11-21T03:58:17;10.50;99.90
3925;DHT22;1977;52.274;10.518;2023-11-21T04:00:44;10.50;99.90
3925;DHT22;1977;52.274;10.518;2023-11-21T04:03:11;10.50;99.90
3925;DHT22;1977;52.274;10.518;2023-11-21T04:05:39;10.50;99.90
3925;DHT22;1977;52.274;10.518;2023-11-21T04:08:08;10.50;99.90
3925;DHT22;1977;52.274;10.518;2023-11-21T04:10:34;10.50;99.90
3925;DHT22;1977;52.274;10.518;2023-11-21T04:13:01;10.60;99.90
3925;DHT22;1977;52.274;10.518;2023-11-21T04:15:28;10.60;99.90
3925;DHT22;1977;52.274;10.518;2023-11-21T04:17:55;10.70;99.90
3925;DHT22;1977;52.274;10.518;2023-11-21T04:20:22;10.60;99.90
3925;DHT22;1977;52.274;10.518;2023-11-21T04:22:49;10.50;99.90
3925;DHT22;1977;52.274;10.518;2023-11-21T04:25:17;10.50;99.90
3925;DHT22;1977;52.274;10.518;2023-11-21T04:27:45;10.60;99.90
3925;DHT22;1977;52.274;10.518;2023-11-21T04:30:13;10.50;99.90
3925;DHT22;1977;52.274;10.518;2023-11-21T04:32:40;10.60;99.90
3925;DHT22;1977;52.274;10.518;2023-11-21T04:35:08;10.70;99.90
3925;DHT22;1977;52.274;10.518;2023-11-21T04:37:35;10.50;99.90
3925;DHT22;1977;52.274;10.518;2023-11-21T04:40:02;10.60;99.90
3925;DHT22;1977;52.274;10.518;2023-11-21T04:42:34;10.60;99.90
3925;DHT22;1977;52.274;10.518;2023-11-21T04:45:01;10.50;99.90
3925;DHT22;1977;52.274;10.518;2023-11-21T04:47:30;10.50;99.90
3925;DHT22;1977;52.274;10.518;2023-11-21T04:49:57;10.50;99.90
3925;DHT22;1977;52.274;10.518;2023-11-21T04:52:24;10.60;99.90
3925;DHT22;1977;52.274;10.518;2023-11-21T04:54:51;10.60;99.90
3925;DHT22;1977;52.274;10.518;2023-11-21T04:57:19;10.60;99.90
3925;DHT22;1977;52.274;10.518;2023-11-21T04:59:48;10.60;99.90
3925;DHT22;1977;52.274;10.518;2023-11-21T05:02:15;10.60;99.90
3925;DHT22;1977;52.274;10.518;2023-11-21T05:04:44;10.60;99.90
3925;DHT22;1977;52.274;10.518;2023-11-21T05:07:11;10.50;99.90
3925;DHT22;1977;52.274;10.518;2023-11-21T05:09:41;10.50;99.90
3925;DHT22;1977;52.274;10.518;2023-11-21T05:12:09;10.40;99.90
3925;DHT22;1977;52.274;10.518;2023-11-21T05:14:37;10.50;99.90
3925;DHT22;1977;52.274;10.518;2023-11-21T05:17:05;10.50;99.90
3925;DHT22;1977;52.274;10.518;2023-11-21T05:19:33;10.50;99.90
3925;DHT22;1977;52.274;10.518;2023-11-21T05:22:01;10.80;99.90
3925;DHT22;1977;52.274;10.518;2023-11-21T05:24:27;10.50;99.90
3925;DHT22;1977;52.274;10.518;2023-11-21T05:26:54;10.50;99.90
3925;DHT22;1977;52.274;10.518;2023-11-21T05:29:21;10.60;99.90
3925;DHT22;1977;52.274;10.518;2023-11-21T05:31:48;10.50;99.90
3925;DHT22;1977;52.274;10.518;2023-11-21T05:34:16;10.50;99.90
3925;DHT22;1977;52.274;10.518;2023-11-21T05:36:43;10.60;99.90
3925;DHT22;1977;52.274;10.518;2023-11-21T05:39:11;10.50;99.90
3925;DHT22;1977;52.274;10.518;2023-11-21T05:41:38;10.50;99.90
3925;DHT22;1977;52.274;10.518;2023-11-21T05:44:05;10.50;99.90
3925;DHT22;1977;52.274;10.518;2023-11-21T05:46:31;10.50;99.90
3925;DHT22;1977;52.274;10.518;2023-11-21T05:48:58;10.50;99.90
3925;DHT22;1977;52.274;10.518;2023-11-21T05:51:26;10.60;99.90
3925;DHT22;1977;52.274;10.518;2023-11-21T05:53:53;10.40;99.90
3925;DHT22;1977;52.274;10.518;2023-11-21T05:56:20;10.40;99.90
3925;DHT22;1977;52.274;10.518;2023-11-21T05:58:47;10.40;99.90
3925;DHT22;1977;52.274;10.518;2023-11-21T06:01:14;10.40;99.90
3925;DHT22;1977;52.274;10.518;2023-11-21T06:03:40;10.50;99.90
3925;DHT22;1977;52.274;10.518;2023-11-21T06:06:08;10.40;99.90
3925;DHT22;1977;52.274;10.518;2023-11-21T06:08:36;10.40;99.90
3925;DHT22;1977;52.274;10.518;2023-11-21T06:11:03;10.30;99.90
3925;DHT22;1977;52.274;10.518;2023-11-21T06:13:30;10.40;99.90
3925;DHT22;1977;52.274;10.518;2023-11-21T06:15:56;10.40;99.90
3925;DHT22;1977;52.274;10.518;2023-11-21T06:18:23;10.40;99.90
3925;DHT22;1977;52.274;10.518;2023-11-21T06:20:50;10.30;99.90
3925;DHT22;1977;52.274;10.518;2023-11-21T06:23:18;10.40;99.90
3925;DHT22;1977;52.274;10.518;2023-11-21T06:25:46;10.30;99.90
3925;DHT22;1977;52.274;10.518;2023-11-21T06:28:14;10.30;99.90
3925;DHT22;1977;52.274;10.518;2023-11-21T06:30:43;10.20;99.90
3925;DHT22;1977;52.274;10.518;2023-11-21T06:33:10;10.30;99.90
3925;DHT22;1977;52.274;10.518;2023-11-21T06:35:37;10.20;99.90
3925;DHT22;1977;52.274;10.518;2023-11-21T06:38:05;10.20;99.90
3925;DHT22;1977;52.274;10.518;2023-11-21T06:40:32;10.20;99.90
3925;DHT22;1977;52.274;10.518;2023-11-21T06:43:01;10.10;99.90
3925;DHT22;1977;52.274;10.518;2023-11-21T06:45:28;10.10;99.90
3925;DHT22;1977;52.274;10.518;2023-11-21T06:47:54;10.00;99.90
3925;DHT22;1977;52.274;10.518;2023-11-21T06:50:21;10.00;99.90
3925;DHT22;1977;52.274;10.518;2023-11-21T06:52:48;9.90;99.90
3925;DHT22;1977;52.274;10.518;2023-11-21T06:55:15;9.90;99.90
3925;DHT22;1977;52.274;10.518;2023-11-21T06:57:42;9.80;99.90
3925;DHT22;1977;52.274;10.518;2023-11-21T07:00:12;9.70;99.90
3925;DHT22;1977;52.274;10.518;2023-11-21T07:02:40;9.70;99.90
3925;DHT22;1977;52.274;10.518;2023-11-21T07:05:07;9.70;99.90
3925;DHT22;1977;52.274;10.518;2023-11-21T07:07:34;9.70;99.90
3925;DHT22;1977;52.274;10.518;2023-11-21T07:10:02;9.80;99.90
3925;DHT22;1977;52.274;10.518;2023-11-21T07:12:30;9.60;99.90
3925;DHT22;1977;52.274;10.518;2023-11-21T07:14:56;9.60;99.90
3925;DHT22;1977;52.274;10.518;2023-11-21T07:17:24;9.60;99.90
3925;DHT22;1977;52.274;10.518;2023-11-21T07:19:51;9.60;99.90
3925;DHT22;1977;52.274;10.518;2023-11-21T07:22:18;9.50;99.90
3925;DHT22;1977;52.274;10.518;2023-11-21T07:24:48;9.50;99.90
3925;DHT22;1977;52.274;10.518;2023-11-21T07:27:15;9.50;99.90
3925;DHT22;1977;52.274;10.518;2023-11-21T07:29:42;9.40;99.90
3925;DHT22;1977;52.274;10.518;2023-11-21T07:32:08;9.40;99.90
3925;DHT22;1977;52.274;10.518;2023-11-21T07:34:37;9.40;99.90
3925;DHT22;1977;52.274;10.518;2023-11-21T07:37:04;9.30;99.90
3925;DHT22;1977;52.274;10.518;2023-11-21T07:39:30;9.30;99.90
3925;DHT22;1977;52.274;10.518;2023-11-21T07:41:57;9.30;99.90
3925;DHT22;1977;52.274;10.518;2023-11-21T07:44:24;9.30;99.90
3925;DHT22;1977;52.274;10.518;2023-11-21T07:46:51;9.30;99.90
3925;DHT22;1977;52.274;10.518;2023-11-21T07:49:22;9.30;99.90
3925;DHT22;1977;52.274;10.518;2023-11-21T07:51:50;9.20;99.90
3925;DHT22;1977;52.274;10.518;2023-11-21T07:54:17;9.20;99.90
3925;DHT22;1977;52.274;10.518;2023-11-21T07:56:44;9.20;99.90
3925;DHT22;1977;52.274;10.518;2023-11-21T07:59:11;9.20;99.90
3925;DHT22;1977;52.274;10.518;2023-11-21T08:01:38;9.20;99.90
3925;DHT22;1977;52.274;10.518;2023-11-21T08:04:05;9.10;99.90
3925;DHT22;1977;52.274;10.518;2023-11-21T08:06:33;9.20;99.90
3925;DHT22;1977;52.274;10.518;2023-11-21T08:09:02;9.20;99.90
3925;DHT22;1977;52.274;10.518;2023-11-21T08:11:28;9.20;99.90
3925;DHT22;1977;52.274;10.518;2023-11-21T08:13:57;9.20;99.90
3925;DHT22;1977;52.274;10.518;2023-11-21T08:16:24;9.20;99.90
3925;DHT22;1977;52.274;10.518;2023-11-21T08:18:51;9.10;99.90
3925;DHT22;1977;52.274;10.518;2023-11-21T08:21:18;9.10;99.90
3925;DHT22;1977;52.274;10.518;2023-11-21T08:23:45;9.10;99.90
3925;DHT22;1977;52.274;10.518;2023-11-21T08:26:16;9.20;99.90
3925;DHT22;1977;52.274;10.518;2023-11-21T08:28:43;9.20;99.90
3925;DHT22;1977;52.274;10.518;2023-11-21T08:31:10;9.10;99.90
3925;DHT22;1977;52.274;10.518;2023-11-21T08:33:37;9.10;99.90
3925;DHT22;1977;52.274;10.518;2023-11-21T08:36:07;9.20;99.90
3925;DHT22;1977;52.274;10.518;2023-11-21T08:38:34;9.10;99.90
3925;DHT22;1977;52.274;10.518;2023-11-21T08:41:03;9.20;99.90
3925;DHT22;1977;52.274;10.518;2023-11-21T08:43:34;9.20;99.90
3925;DHT22;1977;52.274;10.518;2023-11-21T08:46:01;9.20;99.90
3925;DHT22;1977;52.274;10.518;2023-11-21T08:48:28;9.20;99.90
3925;DHT22;1977;52.274;10.518;2023-11-21T08:50:55;9.20;99.90
3925;DHT22;1977;52.274;10.518;2023-11-21T08:53:22;9.20;99.90
3925;DHT22;1977;52.274;10.518;2023-11-21T08:55:48;9.20;99.90
3925;DHT22;1977;52.274;10.518;2023-11-21T08:58:15;9.20;99.90
3925;DHT22;1977;52.274;10.518;2023-11-21T09:00:44;9.20;99.90
3925;DHT22;1977;52.274;10.518;2023-11-21T09:03:12;9.30;99.90
3925;DHT22;1977;52.274;10.518;2023-11-21T09:05:39;9.30;99.90
3925;DHT22;1977;52.274;10.518;2023-11-21T09:08:06;9.30;99.90
3925;DHT22;1977;52.274;10.518;2023-11-21T09:10:33;9.30;99.90
3925;DHT22;1977;52.274;10.518;2023-11-21T09:13:02;9.30;99.90
3925;DHT22;1977;52.274;10.518;2023-11-21T09:15:29;9.30;99.90
3925;DHT22;1977;52.274;10.518;2023-11-21T09:17:57;9.30;99.90
3925;DHT22;1977;52.274;10.518;2023-11-21T09:20:23;9.30;99.90
3925;DHT22;1977;52.274;10.518;2023-11-21T09:22:50;9.30;99.90
3925;DHT22;1977;52.274;10.518;2023-11-21T09:25:17;9.30;99.90
3925;DHT22;1977;52.274;10.518;2023-11-21T09:27:44;9.30;99.90
3925;DHT22;1977;52.274;10.518;2023-11-21T09:30:12;9.20;99.90
3925;DHT22;1977;52.274;10.518;2023-11-21T09:32:40;9.20;99.90
3925;DHT22;1977;52.274;10.518;2023-11-21T09:35:09;9.20;99.90
3925;DHT22;1977;52.274;10.518;2023-11-21T09:37:35;9.20;99.90
3925;DHT22;1977;52.274;10.518;2023-11-21T09:40:03;9.30;99.90
3925;DHT22;1977;52.274;10.518;2023-11-21T09:42:35;9.30;99.90
3925;DHT22;1977;52.274;10.518;2023-11-21T09:45:05;9.30;99.90
3925;DHT22;1977;52.274;10.518;2023-11-21T09:47:33;9.40;99.90
3925;DHT22;1977;52.274;10.518;2023-11-21T09:50:02;9.40;99.90
3925;DHT22;1977;52.274;10.518;2023-11-21T09:52:32;9.40;99.90
3925;DHT22;1977;52.274;10.518;2023-11-21T09:54:59;9.40;99.90
3925;DHT22;1977;52.274;10.518;2023-11-21T09:57:27;9.50;99.90
3925;DHT22;1977;52.274;10.518;2023-11-21T09:59:54;9.50;99.90
3925;DHT22;1977;52.274;10.518;2023-11-21T10:02:25;9.60;99.90
3925;DHT22;1977;52.274;10.518;2023-11-21T10:04:54;9.60;99.90
3925;DHT22;1977;52.274;10.518;2023-11-21T10:07:22;9.70;99.90
3925;DHT22;1977;52.274;10.518;2023-11-21T10:09:51;9.80;99.90
3925;DHT22;1977;52.274;10.518;2023-11-21T10:12:20;9.80;99.90
3925;DHT22;1977;52.274;10.518;2023-11-21T10:14:48;9.80;99.90
3925;DHT22;1977;52.274;10.518;2023-11-21T10:17:15;9.80;99.90
3925;DHT22;1977;52.274;10.518;2023-11-21T10:19:46;9.80;99.90
3925;DHT22;1977;52.274;10.518;2023-11-21T10:22:14;9.80;99.90
3925;DHT22;1977;52.274;10.518;2023-11-21T10:24:42;9.80;99.90
3925;DHT22;1977;52.274;10.518;2023-11-21T10:27:10;9.80;99.90
3925;DHT22;1977;52.274;10.518;2023-11-21T10:29:39;9.70;99.90
3925;DHT22;1977;52.274;10.518;2023-11-21T10:32:07;9.70;99.90
3925;DHT22;1977;52.274;10.518;2023-11-21T10:34:34;9.60;99.90
3925;DHT22;1977;52.274;10.518;2023-11-21T10:37:11;9.70;99.90
3925;DHT22;1977;52.274;10.518;2023-11-21T10:39:36;9.60;99.90
3925;DHT22;1977;52.274;10.518;2023-11-21T10:42:09;9.70;99.90
3925;DHT22;1977;52.274;10.518;2023-11-21T10:44:36;9.70;99.90
3925;DHT22;1977;52.274;10.518;2023-11-21T10:47:03;9.70;99.90
3925;DHT22;1977;52.274;10.518;2023-11-21T10:49:30;9.70;99.90
3925;DHT22;1977;52.274;10.518;2023-11-21T10:51:57;9.70;99.90
3925;DHT22;1977;52.274;10.518;2023-11-21T10:54:25;9.70;99.90
3925;DHT22;1977;52.274;10.518;2023-11-21T10:56:57;9.80;99.90
3925;DHT22;1977;52.274;10.518;2023-11-21T10:59:26;9.80;99.90
3925;DHT22;1977;52.274;10.518;2023-11-21T11:01:58;9.80;99.90
3925;DHT22;1977;52.274;10.518;2023-11-21T11:04:27;9.80;99.90
3925;DHT22;1977;52.274;10.518;2023-11-21T11:06:56;9.80;99.90
3925;DHT22;1977;52.274;10.518;2023-11-21T11:09:23;10.00;99.90
3925;DHT22;1977;52.274;10.518;2023-11-21T11:11:51;9.90;99.90
3925;DHT22;1977;52.274;10.518;2023-11-21T11:14:19;9.90;99.90
3925;DHT22;1977;52.274;10.518;2023-11-21T11:16:54;9.90;99.90
3925;DHT22;1977;52.274;10.518;2023-11-21T11:19:21;9.90;99.90
3925;DHT22;1977;52.274;10.518;2023-11-21T11:21:53;9.80;99.90
3925;DHT22;1977;52.274;10.518;2023-11-21T11:25:01;9.80;99.90
3925;DHT22;1977;52.274;10.518;2023-11-21T11:27:37;9.70;99.90
3925;DHT22;1977;52.274;10.518;2023-11-21T11:30:21;9.70;99.90
3925;DHT22;1977;52.274;10.518;2023-11-21T11:32:58;9.80;99.90
3925;DHT22;1977;52.274;10.518;2023-11-21T11:35:33;9.70;99.90
3925;DHT22;1977;52.274;10.518;2023-11-21T11:38:02;9.70;99.90
3925;DHT22;1977;52.274;10.518;2023-11-21T11:40:39;9.70;99.90
3925;DHT22;1977;52.274;10.518;2023-11-21T11:43:06;9.70;99.90
3925;DHT22;1977;52.274;10.518;2023-11-21T11:45:34;9.70;99.90
3925;DHT22;1977;52.274;10.518;2023-11-21T11:48:08;9.80;99.90
3925;DHT22;1977;52.274;10.518;2023-11-21T11:50:42;9.80;99.90
3925;DHT22;1977;52.274;10.518;2023-11-21T11:53:33;9.80;99.90
3925;DHT22;1977;52.274;10.518;2023-11-21T11:56:19;9.80;99.90
3925;DHT22;1977;52.274;10.518;2023-11-21T11:58:48;9.80;99.90
3925;DHT22;1977;52.274;10.518;2023-11-21T12:01:16;9.80;99.90
3925;DHT22;1977;52.274;10.518;2023-11-21T12:04:24;9.80;99.90
3925;DHT22;1977;52.274;10.518;2023-11-21T12:06:57;9.80;99.90
3925;DHT22;1977;52.274;10.518;2023-11-21T12:09:26;9.90;99.90
3925;DHT22;1977;52.274;10.518;2023-11-21T12:11:53;9.80;99.90
3925;DHT22;1977;52.274;10.518;2023-11-21T12:14:22;9.80;99.90
3925;DHT22;1977;52.274;10.518;2023-11-21T12:16:49;9.90;99.90
3925;DHT22;1977;52.274;10.518;2023-11-21T12:19:19;9.80;99.90
3925;DHT22;1977;52.274;10.518;2023-11-21T12:21:47;9.90;99.90
3925;DHT22;1977;52.274;10.518;2023-11-21T12:24:14;9.90;99.90
3925;DHT22;1977;52.274;10.518;2023-11-21T12:26:42;9.90;99.90
3925;DHT22;1977;52.274;10.518;2023-11-21T12:29:09;10.00;99.90
3925;DHT22;1977;52.274;10.518;2023-11-21T12:31:36;9.90;99.90
3925;DHT22;1977;52.274;10.518;2023-11-21T12:34:04;10.00;99.90
3925;DHT22;1977;52.274;10.518;2023-11-21T12:36:34;9.90;99.90
3925;DHT22;1977;52.274;10.518;2023-11-21T12:39:02;9.90;99.90
3925;DHT22;1977;52.274;10.518;2023-11-21T12:41:29;9.90;99.90
3925;DHT22;1977;52.274;10.518;2023-11-21T12:43:57;9.90;99.90
3925;DHT22;1977;52.274;10.518;2023-11-21T12:46:24;9.90;99.90
3925;DHT22;1977;52.274;10.518;2023-11-21T12:48:54;9.90;99.90
3925;DHT22;1977;52.274;10.518;2023-11-21T12:51:22;9.90;99.90
3925;DHT22;1977;52.274;10.518;2023-11-21T12:53:50;9.90;99.90
3925;DHT22;1977;52.274;10.518;2023-11-21T12:56:18;9.90;99.90
3925;DHT22;1977;52.274;10.518;2023-11-21T12:58:48;9.80;99.90
3925;DHT22;1977;52.274;10.518;2023-11-21T13:01:17;9.80;99.90
3925;DHT22;1977;52.274;10.518;2023-11-21T13:03:47;9.90;99.90
3925;DHT22;1977;52.274;10.518;2023-11-21T13:06:17;9.70;99.90
3925;DHT22;1977;52.274;10.518;2023-11-21T13:08:44;9.70;99.90
3925;DHT22;1977;52.274;10.518;2023-11-21T13:11:13;9.70;99.90
3925;DHT22;1977;52.274;10.518;2023-11-21T13:13:41;9.80;99.90
3925;DHT22;1977;52.274;10.518;2023-11-21T13:16:09;9.60;99.90
3925;DHT22;1977;52.274;10.518;2023-11-21T13:18:37;9.60;99.90
3925;DHT22;1977;52.274;10.518;2023-11-21T13:21:06;9.60;99.90
3925;DHT22;1977;52.274;10.518;2023-11-21T13:23:38;9.60;99.90
3925;DHT22;1977;52.274;10.518;2023-11-21T13:26:07;9.60;99.90
3925;DHT22;1977;52.274;10.518;2023-11-21T13:28:36;9.50;99.90
3925;DHT22;1977;52.274;10.518;2023-11-21T13:31:04;9.50;99.90
3925;DHT22;1977;52.274;10.518;2023-11-21T13:33:41;9.60;99.90
3925;DHT22;1977;52.274;10.518;2023-11-21T13:36:12;9.60;99.90
3925;DHT22;1977;52.274;10.518;2023-11-21T13:38:41;9.50;99.90
3925;DHT22;1977;52.274;10.518;2023-11-21T13:41:09;9.50;99.90
3925;DHT22;1977;52.274;10.518;2023-11-21T13:43:39;9.50;99.90
3925;DHT22;1977;52.274;10.518;2023-11-21T13:46:09;9.50;99.90
3925;DHT22;1977;52.274;10.518;2023-11-21T13:48:40;9.40;99.90
3925;DHT22;1977;52.274;10.518;2023-11-21T13:51:08;9.50;99.90
3925;DHT22;1977;52.274;10.518;2023-11-21T13:53:42;9.40;99.90
3925;DHT22;1977;52.274;10.518;2023-11-21T13:56:10;9.40;99.90
3925;DHT22;1977;52.274;10.518;2023-11-21T13:58:39;9.30;99.90
3925;DHT22;1977;52.274;10.518;2023-11-21T14:01:12;9.30;99.90
3925;DHT22;1977;52.274;10.518;2023-11-21T14:03:58;9.30;99.90
3925;DHT22;1977;52.274;10.518;2023-11-21T14:06:33;9.30;99.90
3925;DHT22;1977;52.274;10.518;2023-11-21T14:09:07;9.30;99.90
3925;DHT22;1977;52.274;10.518;2023-11-21T14:11:35;9.30;99.90
3925;DHT22;1977;52.274;10.518;2023-11-21T14:14:05;9.30;99.90
3925;DHT22;1977;52.274;10.518;2023-11-21T14:16:31;9.30;99.90
3925;DHT22;1977;52.274;10.518;2023-11-21T14:18:58;9.20;99.90
3925;DHT22;1977;52.274;10.518;2023-11-21T14:21:32;9.20;99.90
3925;DHT22;1977;52.274;10.518;2023-11-21T14:23:59;9.20;99.90
3925;DHT22;1977;52.274;10.518;2023-11-21T14:26:26;9.20;99.90
3925;DHT22;1977;52.274;10.518;2023-11-21T14:28:54;9.20;99.90
3925;DHT22;1977;52.274;10.518;2023-11-21T14:31:23;9.30;99.90
3925;DHT22;1977;52.274;10.518;2023-11-21T14:33:50;9.20;99.90
3925;DHT22;1977;52.274;10.518;2023-11-21T14:36:17;9.20;99.90
3925;DHT22;1977;52.274;10.518;2023-11-21T14:38:44;9.20;99.90
3925;DHT22;1977;52.274;10.518;2023-11-21T14:41:10;9.30;99.90
3925;DHT22;1977;52.274;10.518;2023-11-21T14:43:39;9.40;99.90
3925;DHT22;1977;52.274;10.518;2023-11-21T14:46:07;9.50;99.90
3925;DHT22;1977;52.274;10.518;2023-11-21T14:48:36;9.60;99.90
3925;DHT22;1977;52.274;10.518;2023-11-21T14:51:08;9.40;99.90
3925;DHT22;1977;52.274;10.518;2023-11-21T14:53:56;9.40;99.90
3925;DHT22;1977;52.274;10.518;2023-11-21T14:56:26;9.30;99.90
3925;DHT22;1977;52.274;10.518;2023-11-21T14:58:54;9.20;99.90
3925;DHT22;1977;52.274;10.518;2023-11-21T15:01:22;9.20;99.90
3925;DHT22;1977;52.274;10.518;2023-11-21T15:04:02;9.10;99.90
3925;DHT22;1977;52.274;10.518;2023-11-21T15:06:31;9.10;99.90
3925;DHT22;1977;52.274;10.518;2023-11-21T15:08:57;9.10;99.90
3925;DHT22;1977;52.274;10.518;2023-11-21T15:11:42;9.10;99.90
3925;DHT22;1977;52.274;10.518;2023-11-21T15:14:09;9.00;99.90
3925;DHT22;1977;52.274;10.518;2023-11-21T15:16:38;8.90;99.90
3925;DHT22;1977;52.274;10.518;2023-11-21T15:19:09;8.90;99.90
3925;DHT22;1977;52.274;10.518;2023-11-21T15:21:38;8.80;99.90
3925;DHT22;1977;52.274;10.518;2023-11-21T15:24:05;8.80;99.90
3925;DHT22;1977;52.274;10.518;2023-11-21T15:26:32;8.80;99.90
3925;DHT22;1977;52.274;10.518;2023-11-21T15:28:59;8.80;99.90
3925;DHT22;1977;52.274;10.518;2023-11-21T15:31:26;8.80;99.90
3925;DHT22;1977;52.274;10.518;2023-11-21T15:33:52;8.80;99.90
3925;DHT22;1977;52.274;10.518;2023-11-21T15:36:21;8.80;99.90
3925;DHT22;1977;52.274;10.518;2023-11-21T15:38:47;8.70;99.90
3925;DHT22;1977;52.274;10.518;2023-11-21T15:41:14;8.70;99.90
3925;DHT22;1977;52.274;10.518;2023-11-21T15:43:41;8.60;99.90
3925;DHT22;1977;52.274;10.518;2023-11-21T15:46:08;8.60;99.90
3925;DHT22;1977;52.274;10.518;2023-11-21T15:48:35;8.50;99.90
3925;DHT22;1977;52.274;10.518;2023-11-21T15:51:04;8.50;99.90
3925;DHT22;1977;52.274;10.518;2023-11-21T15:53:32;8.50;99.90
3925;DHT22;1977;52.274;10.518;2023-11-21T15:55:59;8.40;99.90
3925;DHT22;1977;52.274;10.518;2023-11-21T15:58:26;8.40;99.90
3925;DHT22;1977;52.274;10.518;2023-11-21T16:00:52;8.40;99.90
3925;DHT22;1977;52.274;10.518;2023-11-21T16:03:19;8.40;99.90
3925;DHT22;1977;52.274;10.518;2023-11-21T16:05:47;8.40;99.90